CheckWX is a tool to help pilots better visualize weather data.  It is not intended as a substitute for an official pre-flight weather briefing.

21:06:45 UTC

KMHL METAR
Marshall Memorial Municipal Airport
Marshall, Missouri, USA
Current

32 mins ago

KMHL 232035Z AUTO 00000KT 10SM OVC023 13/09 A3009 RMK AO2
Observed
Apr-23 @ 20:35 UTC
Visibility
10 SM
Flight Rules
MVFR
Cloud Levels
  • Overcast at 2,300' AGL
Temperature
13°C / 55°F
Dewpoint
C / 48°F
Humidity
77%
Altimeter
30.09" Hg
Pressure
1018.92 hPa
Previous

52 mins ago

KMHL 232015Z AUTO 00000KT 10SM OVC023 13/08 A3010 RMK AO2
Observed
Apr-23 @ 20:15 UTC
Visibility
10 SM
Flight Rules
MVFR
Cloud Levels
  • Overcast at 2,300' AGL
Temperature
13°C / 55°F
Dewpoint
C / 46°F
Humidity
72%
Altimeter
30.1" Hg
Pressure
1019.32 hPa
Previous

1 hour ago

KMHL 231955Z AUTO 00000KT 10SM OVC023 13/08 A3009 RMK AO2
Observed
Apr-23 @ 19:55 UTC
Visibility
10 SM
Flight Rules
MVFR
Cloud Levels
  • Overcast at 2,300' AGL
Temperature
13°C / 55°F
Dewpoint
C / 46°F
Humidity
72%
Altimeter
30.09" Hg
Pressure
1018.92 hPa